createdAt,value
2018-08-09T00:00:16.311Z,2.20
2018-08-09T00:01:20.952Z,2.08
2018-08-09T00:02:24.403Z,1.77
2018-08-09T00:03:27.787Z,1.93
2018-08-09T00:04:31.225Z,1.80
2018-08-09T00:05:36.222Z,1.80
2018-08-09T00:06:39.623Z,2.00
2018-08-09T00:07:43.023Z,1.70
2018-08-09T00:08:46.420Z,1.80
2018-08-09T00:09:49.803Z,1.98
2018-08-09T00:10:54.199Z,1.80
2018-08-09T00:11:57.671Z,2.00
2018-08-09T00:13:01.055Z,1.72
2018-08-09T00:14:04.439Z,2.08
2018-08-09T00:15:08.905Z,1.65
2018-08-09T00:16:13.408Z,1.60
2018-08-09T00:17:16.807Z,2.00
2018-08-09T00:18:20.183Z,1.85
2018-08-09T00:19:23.571Z,1.92
2018-08-09T00:20:27.956Z,1.75
2018-08-09T00:21:31.423Z,1.90
2018-08-09T00:22:34.811Z,1.80
2018-08-09T00:23:38.195Z,1.90
2018-08-09T00:24:41.575Z,1.70
2018-08-09T00:25:47.089Z,2.15
2018-08-09T00:26:50.555Z,1.92
2018-08-09T00:27:53.931Z,2.00
2018-08-09T00:28:57.566Z,2.00
2018-08-09T00:30:00.948Z,2.10
2018-08-09T00:31:05.393Z,2.12
2018-08-09T00:32:08.819Z,1.52
2018-08-09T00:33:12.203Z,2.08
2018-08-09T00:34:15.588Z,2.00
2018-08-09T00:35:20.064Z,2.10
2018-08-09T00:36:30.729Z,1.90
2018-08-09T00:37:34.195Z,1.90
2018-08-09T00:38:37.575Z,2.10
2018-08-09T00:39:40.995Z,1.77
2018-08-09T00:40:46.272Z,1.77
2018-08-09T00:41:49.675Z,2.00
2018-08-09T00:42:53.080Z,1.62
2018-08-09T00:43:56.459Z,2.20
2018-08-09T00:44:59.843Z,1.67
2018-08-09T00:46:06.113Z,1.92
2018-08-09T00:47:09.523Z,1.80
2018-08-09T00:48:12.934Z,2.00
2018-08-09T00:49:16.319Z,1.90
2018-08-09T00:50:20.677Z,1.92
2018-08-09T00:51:25.619Z,2.10
2018-08-09T00:52:29.039Z,2.00
2018-08-09T00:53:32.441Z,1.83
2018-08-09T00:54:35.832Z,1.82
2018-08-09T00:55:40.335Z,1.50
2018-08-09T00:56:43.767Z,1.83
2018-08-09T00:57:47.151Z,2.02
2018-08-09T00:58:50.547Z,2.00
2018-08-09T00:59:53.931Z,1.60
2018-08-09T01:00:58.648Z,2.00
2018-08-09T01:02:02.044Z,1.87
2018-08-09T01:03:05.427Z,2.12
2018-08-09T01:04:08.823Z,2.00
2018-08-09T01:05:13.277Z,2.15
2018-08-09T01:06:17.629Z,1.95
2018-08-09T01:07:21.023Z,1.60
2018-08-09T01:08:24.403Z,1.98
2018-08-09T01:09:27.804Z,2.05
2018-08-09T01:10:32.427Z,2.05
2018-08-09T01:11:36.690Z,1.82
2018-08-09T01:12:40.079Z,1.77
2018-08-09T01:13:43.487Z,1.55
2018-08-09T01:14:46.904Z,1.62
2018-08-09T01:15:51.428Z,1.80
2018-08-09T01:16:54.839Z,1.90
2018-08-09T01:17:58.219Z,1.90
2018-08-09T01:19:01.600Z,2.00
2018-08-09T01:20:06.666Z,1.80
2018-08-09T01:21:11.405Z,1.75
2018-08-09T01:22:14.823Z,1.85
2018-08-09T01:23:18.210Z,2.08
2018-08-09T01:24:21.595Z,1.90
2018-08-09T01:25:25.843Z,1.92
2018-08-09T01:26:29.997Z,2.00
2018-08-09T01:27:33.371Z,2.00
2018-08-09T01:28:36.754Z,2.00
2018-08-09T01:29:40.867Z,2.05
2018-08-09T01:30:45.390Z,1.75
2018-08-09T01:31:48.799Z,2.02
2018-08-09T01:32:52.232Z,2.12
2018-08-09T01:33:55.571Z,2.00
2018-08-09T01:34:58.951Z,1.92
2018-08-09T01:36:03.434Z,2.10
2018-08-09T01:37:06.839Z,1.80
2018-08-09T01:38:10.225Z,1.95
2018-08-09T01:39:14.315Z,2.15
2018-08-09T01:40:18.481Z,2.10
2018-08-09T01:41:23.091Z,1.98
2018-08-09T01:42:37.791Z,2.30
2018-08-09T01:43:52.363Z,1.65
2018-08-09T01:44:55.763Z,1.75
2018-08-09T01:46:00.449Z,2.08
2018-08-09T01:47:03.872Z,1.87
2018-08-09T01:48:07.263Z,2.25
2018-08-09T01:49:10.671Z,1.90
2018-08-09T01:50:15.161Z,2.00
2018-08-09T01:51:19.581Z,1.90
2018-08-09T01:52:22.993Z,1.80
2018-08-09T01:53:26.371Z,2.37
2018-08-09T01:54:29.751Z,1.82
2018-08-09T01:55:34.272Z,1.52
2018-08-09T01:56:37.682Z,1.85
2018-08-09T01:57:41.083Z,2.00
2018-08-09T01:58:44.467Z,1.80
2018-08-09T01:59:47.855Z,1.95
2018-08-09T02:00:52.332Z,1.65
2018-08-09T02:01:55.755Z,1.85
2018-08-09T02:02:59.155Z,1.85
2018-08-09T02:04:02.535Z,1.70
2018-08-09T02:05:09.364Z,1.85
2018-08-09T02:06:14.247Z,2.02
2018-08-09T02:07:17.679Z,1.75
2018-08-09T02:08:21.123Z,2.00
2018-08-09T02:09:29.982Z,2.10
2018-08-09T02:10:35.279Z,2.08
2018-08-09T02:11:38.712Z,2.00
2018-08-09T02:12:42.170Z,2.17
2018-08-09T02:13:45.631Z,2.05
2018-08-09T02:14:49.009Z,2.33
2018-08-09T02:15:54.022Z,2.10
2018-08-09T02:16:57.503Z,2.10
2018-08-09T02:18:00.883Z,1.90
2018-08-09T02:19:04.295Z,2.00
2018-08-09T02:20:08.665Z,2.30
2018-08-09T02:21:13.949Z,2.10
2018-08-09T02:22:17.392Z,2.30
2018-08-09T02:23:20.739Z,2.20
2018-08-09T02:24:24.187Z,2.08
2018-08-09T02:25:29.046Z,1.70
2018-08-09T02:26:32.471Z,2.12
2018-08-09T02:27:35.925Z,2.10
2018-08-09T02:28:39.307Z,2.10
2018-08-09T02:29:42.818Z,2.55
2018-08-09T02:30:47.168Z,2.20
2018-08-09T02:31:50.588Z,2.40
2018-08-09T02:32:54.088Z,2.35
2018-08-09T02:34:04.261Z,2.42
2018-08-09T02:35:08.704Z,2.12
2018-08-09T02:36:13.093Z,2.40
2018-08-09T02:37:16.495Z,2.20
2018-08-09T02:38:20.033Z,2.27
2018-08-09T02:39:23.416Z,2.17
2018-08-09T02:40:27.985Z,2.08
2018-08-09T02:41:31.727Z,2.10
2018-08-09T02:42:35.115Z,2.08
2018-08-09T02:43:38.535Z,2.77
2018-08-09T02:44:41.911Z,2.20
2018-08-09T02:45:46.274Z,2.20
2018-08-09T02:46:49.777Z,2.22
2018-08-09T02:47:53.077Z,2.27
2018-08-09T02:48:56.455Z,2.50
2018-08-09T02:49:59.837Z,2.33
2018-08-09T02:51:04.421Z,2.30
2018-08-09T02:52:07.823Z,2.40
2018-08-09T02:53:11.199Z,2.15
2018-08-09T02:54:14.567Z,2.22
2018-08-09T02:55:19.048Z,2.40
2018-08-09T02:56:23.916Z,2.60
2018-08-09T02:57:27.292Z,2.50
2018-08-09T02:58:30.671Z,2.22
2018-08-09T02:59:34.062Z,2.60
2018-08-09T03:00:38.462Z,2.58
2018-08-09T03:01:41.879Z,2.55
2018-08-09T03:02:45.251Z,2.25
2018-08-09T03:03:48.632Z,2.40
2018-08-09T03:04:52.083Z,2.35
2018-08-09T03:05:56.669Z,2.58
2018-08-09T03:07:00.111Z,2.60
2018-08-09T03:08:03.484Z,2.83
2018-08-09T03:09:10.083Z,2.60
2018-08-09T03:10:14.538Z,2.37
2018-08-09T03:11:19.185Z,2.30
2018-08-09T03:12:22.688Z,2.45
2018-08-09T03:13:26.064Z,2.40
2018-08-09T03:14:29.453Z,2.10
2018-08-09T03:15:33.781Z,2.40
2018-08-09T03:16:37.155Z,2.50
2018-08-09T03:17:40.550Z,2.37
2018-08-09T03:18:43.931Z,2.50
2018-08-09T03:19:47.311Z,2.50
2018-08-09T03:20:52.175Z,2.47
2018-08-09T03:21:55.583Z,2.40
2018-08-09T03:22:58.979Z,2.45
2018-08-09T03:24:02.363Z,2.15
2018-08-09T03:25:06.670Z,2.47
2018-08-09T03:26:17.802Z,2.22
2018-08-09T03:27:21.204Z,2.42
2018-08-09T03:28:24.643Z,2.33
2018-08-09T03:29:28.027Z,2.17
2018-08-09T03:30:33.988Z,2.60
2018-08-09T03:31:37.413Z,2.30
2018-08-09T03:32:40.791Z,2.17
2018-08-09T03:33:44.170Z,2.30
2018-08-09T03:34:47.555Z,2.57
2018-08-09T03:35:52.019Z,2.20
2018-08-09T03:36:55.439Z,2.47
2018-08-09T03:37:58.831Z,2.60
2018-08-09T03:39:02.263Z,2.40
2018-08-09T03:40:07.027Z,2.17
2018-08-09T03:41:11.371Z,2.52
2018-08-09T03:42:14.762Z,2.50
2018-08-09T03:43:18.151Z,2.40
2018-08-09T03:44:21.567Z,2.67
2018-08-09T03:45:26.390Z,2.40
2018-08-09T03:46:30.566Z,2.40
2018-08-09T03:47:33.947Z,2.30
2018-08-09T03:48:37.319Z,2.53
2018-08-09T03:49:40.721Z,2.20
2018-08-09T03:50:45.559Z,2.35
2018-08-09T03:51:49.171Z,2.52
2018-08-09T03:52:52.542Z,2.40
2018-08-09T03:53:55.939Z,2.50
2018-08-09T03:54:59.367Z,2.60
2018-08-09T03:56:04.995Z,2.98
2018-08-09T03:57:08.419Z,2.30
2018-08-09T03:58:11.873Z,2.47
2018-08-09T03:59:15.199Z,2.40
2018-08-09T04:00:20.612Z,2.52
2018-08-09T04:01:25.201Z,2.50
2018-08-09T04:02:28.615Z,2.70
2018-08-09T04:03:32.047Z,2.87
2018-08-09T04:05:46.354Z,2.40
2018-08-09T04:06:49.749Z,2.42
2018-08-09T04:07:53.127Z,2.17
2018-08-09T04:08:56.519Z,2.67
2018-08-09T04:09:59.892Z,2.72
2018-08-09T04:11:04.553Z,2.50
2018-08-09T04:12:07.979Z,2.53
2018-08-09T04:13:11.383Z,2.65
2018-08-09T04:14:14.810Z,2.60
2018-08-09T04:15:19.161Z,2.53
2018-08-09T04:16:23.435Z,3.08
2018-08-09T04:17:26.815Z,2.30
2018-08-09T04:18:30.303Z,2.50
2018-08-09T04:19:33.701Z,2.70
2018-08-09T04:20:38.212Z,2.90
2018-08-09T04:21:41.616Z,2.58
2018-08-09T04:22:44.995Z,2.40
2018-08-09T04:23:48.379Z,2.65
2018-08-09T04:24:51.763Z,2.58
2018-08-09T04:25:56.100Z,2.58
2018-08-09T04:26:59.576Z,3.17
2018-08-09T04:28:02.950Z,2.70
2018-08-09T04:29:06.339Z,2.62
2018-08-09T04:30:16.966Z,2.85
2018-08-09T04:31:21.897Z,2.70
2018-08-09T04:32:25.323Z,2.65
2018-08-09T04:33:28.703Z,2.80
2018-08-09T04:34:32.085Z,3.15
2018-08-09T04:35:36.646Z,2.83
2018-08-09T04:36:40.064Z,3.15
2018-08-09T04:37:43.517Z,2.70
2018-08-09T04:38:46.900Z,2.60
2018-08-09T04:39:50.285Z,3.10
2018-08-09T04:40:54.640Z,2.92
2018-08-09T04:41:58.047Z,2.20
2018-08-09T04:43:01.463Z,2.70
2018-08-09T04:44:04.890Z,2.80
2018-08-09T04:45:09.637Z,2.50
2018-08-09T04:46:14.392Z,2.55
2018-08-09T04:47:17.791Z,2.72
2018-08-09T04:48:21.187Z,2.85
2018-08-09T04:49:24.609Z,2.80
2018-08-09T04:50:29.002Z,3.17
2018-08-09T04:51:32.395Z,3.20
2018-08-09T04:52:35.815Z,2.55
2018-08-09T04:53:39.211Z,2.60
2018-08-09T04:54:42.595Z,2.58
2018-08-09T04:55:47.096Z,2.40
2018-08-09T04:56:50.495Z,2.83
2018-08-09T04:57:53.879Z,2.90
2018-08-09T04:58:57.267Z,2.60
2018-08-09T05:00:00.639Z,2.40
2018-08-09T05:01:05.910Z,2.23
2018-08-09T05:02:09.319Z,2.50
2018-08-09T05:03:12.719Z,2.50
2018-08-09T05:04:16.127Z,2.52
2018-08-09T05:05:20.775Z,2.42
2018-08-09T05:06:24.768Z,2.30
2018-08-09T05:07:28.163Z,2.50
2018-08-09T05:08:31.791Z,2.62
2018-08-09T05:09:35.168Z,2.40
2018-08-09T05:10:39.561Z,2.80
2018-08-09T05:11:42.969Z,2.80
2018-08-09T05:12:46.363Z,2.58
2018-08-09T05:13:49.755Z,2.60
2018-08-09T05:14:53.139Z,2.40
2018-08-09T05:15:57.652Z,2.50
2018-08-09T05:17:01.111Z,2.87
2018-08-09T05:18:04.474Z,2.57
2018-08-09T05:19:07.891Z,2.58
2018-08-09T05:20:12.372Z,2.60
2018-08-09T05:21:17.149Z,2.52
2018-08-09T05:22:20.670Z,2.80
2018-08-09T05:23:24.072Z,2.70
2018-08-09T05:24:27.455Z,2.40
2018-08-09T05:25:31.887Z,2.42
2018-08-09T05:26:35.295Z,2.30
2018-08-09T05:27:41.054Z,2.57
2018-08-09T05:28:47.827Z,2.30
2018-08-09T05:29:53.894Z,2.50
2018-08-09T05:30:59.520Z,2.80
2018-08-09T05:32:06.775Z,2.42
2018-08-09T05:33:15.018Z,2.87
2018-08-09T05:34:19.390Z,2.47
2018-08-09T05:35:25.525Z,2.62
2018-08-09T05:36:32.270Z,2.52
2018-08-09T05:37:36.723Z,2.40
2018-08-09T05:38:42.394Z,2.87
2018-08-09T05:39:48.448Z,2.73
2018-08-09T05:40:55.784Z,2.47
2018-08-09T05:41:59.213Z,2.42
2018-08-09T05:43:05.095Z,2.55
2018-08-09T05:44:11.784Z,2.37
2018-08-09T05:45:18.916Z,2.52
2018-08-09T05:46:27.306Z,2.60
2018-08-09T05:47:31.024Z,2.60
2018-08-09T05:48:36.280Z,3.15
2018-08-09T05:49:41.860Z,2.60
2018-08-09T05:50:49.722Z,2.60
2018-08-09T05:51:55.702Z,2.27
2018-08-09T05:53:01.955Z,2.80
2018-08-09T05:54:08.692Z,2.60
2018-08-09T05:55:13.256Z,2.45
2018-08-09T05:56:18.638Z,2.45
2018-08-09T05:57:22.147Z,2.98
2018-08-09T05:58:25.543Z,2.70
2018-08-09T05:59:28.984Z,2.72
2018-08-09T06:00:33.474Z,2.85
2018-08-09T06:01:36.891Z,2.80
2018-08-09T06:02:40.279Z,2.70
2018-08-09T06:03:43.687Z,2.90
2018-08-09T06:04:47.083Z,2.65
2018-08-09T06:05:51.737Z,2.53
2018-08-09T06:06:55.151Z,2.70
2018-08-09T06:07:58.525Z,2.60
2018-08-09T06:09:01.899Z,3.00
2018-08-09T06:10:07.425Z,2.80
2018-08-09T06:11:11.770Z,2.57
2018-08-09T06:12:15.155Z,2.40
2018-08-09T06:13:18.541Z,2.70
2018-08-09T06:14:22.067Z,2.60
2018-08-09T06:15:27.227Z,3.40
2018-08-09T06:16:31.044Z,2.77
2018-08-09T06:17:34.423Z,2.70
2018-08-09T06:18:37.800Z,2.90
2018-08-09T06:19:41.203Z,2.50
2018-08-09T06:20:45.813Z,2.93
2018-08-09T06:21:49.255Z,2.62
2018-08-09T06:22:52.639Z,3.40
2018-08-09T06:23:56.026Z,3.00
2018-08-09T06:24:59.406Z,3.30
2018-08-09T06:27:13.279Z,2.67
2018-08-09T06:28:16.664Z,3.03
2018-08-09T06:29:20.047Z,2.72
2018-08-09T06:30:24.784Z,3.07
2018-08-09T06:31:29.213Z,3.57
2018-08-09T06:32:32.614Z,3.20
2018-08-09T06:33:36.024Z,3.15
2018-08-09T06:34:39.384Z,2.90
2018-08-09T06:35:43.908Z,3.20
2018-08-09T06:36:47.323Z,3.02
2018-08-09T06:37:50.764Z,3.15
2018-08-09T06:38:54.135Z,3.40
2018-08-09T06:39:57.543Z,3.47
2018-08-09T06:41:01.870Z,3.37
2018-08-09T06:42:05.276Z,3.72
2018-08-09T06:43:08.879Z,3.10
2018-08-09T06:44:12.259Z,3.52
2018-08-09T06:45:16.560Z,3.40
2018-08-09T06:46:20.975Z,3.30
2018-08-09T06:47:24.463Z,3.62
2018-08-09T06:48:27.876Z,3.10
2018-08-09T06:49:31.412Z,3.50
2018-08-09T06:50:36.227Z,3.08
2018-08-09T06:51:39.643Z,3.25
2018-08-09T06:52:43.011Z,2.77
2018-08-09T06:53:46.435Z,3.00
2018-08-09T06:54:49.812Z,2.90
2018-08-09T06:55:54.393Z,3.30
2018-08-09T06:56:57.995Z,3.57
2018-08-09T06:58:01.370Z,3.27
2018-08-09T06:59:04.779Z,3.30
2018-08-09T07:00:11.592Z,3.33
2018-08-09T07:01:16.665Z,3.20
2018-08-09T07:02:20.206Z,3.20
2018-08-09T07:03:23.936Z,3.60
2018-08-09T07:04:27.316Z,4.00
2018-08-09T07:05:32.511Z,3.77
2018-08-09T07:06:36.661Z,3.63
2018-08-09T07:07:40.835Z,3.98
2018-08-09T07:08:44.230Z,3.70
2018-08-09T07:09:47.862Z,3.98
2018-08-09T07:10:52.144Z,3.80
2018-08-09T07:11:55.547Z,3.70
2018-08-09T07:12:59.007Z,3.87
2018-08-09T07:14:02.783Z,4.10
2018-08-09T07:15:10.205Z,3.83
2018-08-09T07:16:14.596Z,3.93
2018-08-09T07:17:18.041Z,3.80
2018-08-09T07:18:21.420Z,4.42
2018-08-09T07:19:24.831Z,3.83
2018-08-09T07:20:29.355Z,4.20
2018-08-09T07:21:33.907Z,3.23
2018-08-09T07:22:38.176Z,4.40
2018-08-09T07:23:41.555Z,3.80
2018-08-09T07:24:44.944Z,3.60
2018-08-09T07:25:49.395Z,3.90
2018-08-09T07:26:52.791Z,3.87
2018-08-09T07:27:56.187Z,4.10
2018-08-09T07:28:59.563Z,3.77
2018-08-09T07:30:03.532Z,4.60
2018-08-09T07:31:08.044Z,4.73
2018-08-09T07:32:11.459Z,4.27
2018-08-09T07:33:14.831Z,4.23
2018-08-09T07:34:18.215Z,3.83
2018-08-09T07:35:22.609Z,4.23
2018-08-09T07:36:26.964Z,4.80
2018-08-09T07:37:30.362Z,4.47
2018-08-09T07:38:33.782Z,4.97
2018-08-09T07:39:37.257Z,4.30
2018-08-09T07:40:41.619Z,4.33
2018-08-09T07:41:45.040Z,4.43
2018-08-09T07:42:48.411Z,4.50
2018-08-09T07:43:51.784Z,5.10
2018-08-09T07:44:55.188Z,4.77
2018-08-09T07:45:59.606Z,4.57
2018-08-09T07:47:03.083Z,4.95
2018-08-09T07:48:06.459Z,5.23
2018-08-09T07:49:09.893Z,4.40
2018-08-09T07:50:14.358Z,4.33
2018-08-09T07:51:18.921Z,4.90
2018-08-09T07:52:22.499Z,4.60
2018-08-09T07:53:25.875Z,4.97
2018-08-09T07:54:29.439Z,4.70
2018-08-09T07:55:34.345Z,4.53
2018-08-09T07:56:37.757Z,4.73
2018-08-09T07:57:41.132Z,4.80
2018-08-09T07:58:44.507Z,5.23
2018-08-09T07:59:47.894Z,4.60
2018-08-09T08:00:52.569Z,4.83
2018-08-09T08:01:55.975Z,4.60
2018-08-09T08:02:59.343Z,5.03
2018-08-09T08:04:02.731Z,4.50
2018-08-09T08:05:07.296Z,4.60
2018-08-09T08:06:11.739Z,4.57
2018-08-09T08:07:15.120Z,4.60
2018-08-09T08:08:18.519Z,4.70
2018-08-09T08:09:21.887Z,4.63
2018-08-09T08:10:26.504Z,4.60
2018-08-09T08:11:30.603Z,4.90
2018-08-09T08:12:33.994Z,4.60
2018-08-09T08:13:37.403Z,4.57
2018-08-09T08:14:40.787Z,4.97
2018-08-09T08:15:45.158Z,4.57
2018-08-09T08:16:48.547Z,4.80
2018-08-09T08:17:51.935Z,4.43
2018-08-09T08:18:55.309Z,4.30
2018-08-09T08:19:58.696Z,4.47
2018-08-09T08:21:03.194Z,4.50
2018-08-09T08:22:06.584Z,4.60
2018-08-09T08:23:09.967Z,4.27
2018-08-09T08:24:13.335Z,4.70
2018-08-09T08:25:17.963Z,4.40
2018-08-09T08:26:22.438Z,5.13
2018-08-09T08:27:25.811Z,4.93
2018-08-09T08:28:29.187Z,4.60
2018-08-09T08:29:32.559Z,4.50
2018-08-09T08:30:36.761Z,4.72
2018-08-09T08:31:40.211Z,5.13
2018-08-09T08:32:43.659Z,4.43
2018-08-09T08:33:47.035Z,4.93
2018-08-09T08:34:50.415Z,5.87
2018-08-09T08:35:54.870Z,5.53
2018-08-09T08:36:58.283Z,5.30
2018-08-09T08:38:01.655Z,6.23
2018-08-09T08:39:08.267Z,5.40
2018-08-09T08:40:13.229Z,5.30
2018-08-09T08:41:17.793Z,5.37
2018-08-09T08:42:21.211Z,5.37
2018-08-09T08:43:24.595Z,5.77
2018-08-09T08:44:27.975Z,5.55
2018-08-09T08:45:32.819Z,5.20
2018-08-09T08:46:36.223Z,5.37
2018-08-09T08:47:39.675Z,5.40
2018-08-09T08:48:43.047Z,5.00
2018-08-09T08:49:46.419Z,5.07
2018-08-09T08:50:50.904Z,5.57
2018-08-09T08:51:54.299Z,5.10
2018-08-09T08:52:57.689Z,5.57
2018-08-09T08:54:01.079Z,5.23
2018-08-09T08:55:07.833Z,6.67
2018-08-09T08:56:12.315Z,8.10
2018-08-09T08:57:15.707Z,6.43
2018-08-09T08:58:19.119Z,5.40
2018-08-09T08:59:22.495Z,6.07
2018-08-09T09:00:26.966Z,6.67
2018-08-09T09:01:30.759Z,9.13
2018-08-09T09:02:34.608Z,6.67
2018-08-09T09:03:38.067Z,5.80
2018-08-09T09:04:41.483Z,6.43
2018-08-09T09:05:46.020Z,6.60
2018-08-09T09:06:49.419Z,6.23
2018-08-09T09:07:52.803Z,6.10
2018-08-09T09:08:56.204Z,5.87
2018-08-09T09:09:59.587Z,5.97
2018-08-09T09:11:04.113Z,6.20
2018-08-09T09:12:07.975Z,5.50
2018-08-09T09:13:11.488Z,5.50
2018-08-09T09:14:14.907Z,5.80
2018-08-09T09:15:19.270Z,5.30
2018-08-09T09:16:24.064Z,5.47
2018-08-09T09:17:27.454Z,4.90
2018-08-09T09:18:30.831Z,5.80
2018-08-09T09:19:34.239Z,5.17
2018-08-09T09:20:38.372Z,5.93
2018-08-09T09:21:41.774Z,5.47
2018-08-09T09:22:45.521Z,6.00
2018-08-09T09:23:48.898Z,5.23
2018-08-09T09:24:52.351Z,5.27
2018-08-09T09:25:56.651Z,5.40
2018-08-09T09:27:00.067Z,6.27
2018-08-09T09:28:03.467Z,8.23
2018-08-09T09:29:06.855Z,8.97
2018-08-09T09:30:13.951Z,6.80
2018-08-09T09:31:18.506Z,6.57
2018-08-09T09:32:21.900Z,5.90
2018-08-09T09:33:25.283Z,12.00
2018-08-09T09:34:28.647Z,7.37
2018-08-09T09:35:33.012Z,5.70
2018-08-09T09:36:36.464Z,5.30
2018-08-09T09:37:40.595Z,5.70
2018-08-09T09:38:44.155Z,6.27
2018-08-09T09:39:47.539Z,5.13
2018-08-09T09:40:52.262Z,6.50
2018-08-09T09:41:55.669Z,6.33
2018-08-09T09:42:59.041Z,5.33
2018-08-09T09:44:02.411Z,5.70
2018-08-09T09:45:07.106Z,5.97
2018-08-09T09:46:11.600Z,6.10
2018-08-09T09:47:14.979Z,5.43
2018-08-09T09:48:18.365Z,5.60
2018-08-09T09:49:21.735Z,5.43
2018-08-09T09:50:26.096Z,5.13
2018-08-09T09:51:30.311Z,5.77
2018-08-09T09:52:33.679Z,5.37
2018-08-09T09:53:37.125Z,5.67
2018-08-09T09:54:40.503Z,5.60
2018-08-09T09:55:44.998Z,5.37
2018-08-09T09:56:48.403Z,5.57
2018-08-09T09:57:51.795Z,5.00
2018-08-09T09:58:55.167Z,5.30
2018-08-09T09:59:58.537Z,4.93
2018-08-09T10:01:08.014Z,5.10
2018-08-09T10:02:11.423Z,5.37
2018-08-09T10:03:14.791Z,5.27
2018-08-09T10:04:18.167Z,5.20
2018-08-09T10:05:22.666Z,5.13
2018-08-09T10:06:27.071Z,5.73
2018-08-09T10:07:30.475Z,5.60
2018-08-09T10:08:33.855Z,5.23
2018-08-09T10:09:37.231Z,5.87
2018-08-09T10:10:41.568Z,5.80
2018-08-09T10:11:44.997Z,5.17
2018-08-09T10:12:48.385Z,7.33
2018-08-09T10:13:51.756Z,5.27
2018-08-09T10:14:55.139Z,7.77
2018-08-09T10:16:01.113Z,5.67
2018-08-09T10:17:04.543Z,6.37
2018-08-09T10:18:07.911Z,5.40
2018-08-09T10:19:11.292Z,5.23
2018-08-09T10:20:15.718Z,5.77
2018-08-09T10:21:20.310Z,5.63
2018-08-09T10:22:23.807Z,6.00
2018-08-09T10:23:27.182Z,8.30
2018-08-09T10:24:30.669Z,7.87
2018-08-09T10:25:35.788Z,5.80
2018-08-09T10:26:39.193Z,6.20
2018-08-09T10:27:42.580Z,6.67
2018-08-09T10:28:46.159Z,7.60
2018-08-09T10:29:49.548Z,5.87
2018-08-09T10:30:54.070Z,4.83
2018-08-09T10:31:57.467Z,5.80
2018-08-09T10:33:01.367Z,7.77
2018-08-09T10:34:04.768Z,6.00
2018-08-09T10:35:09.061Z,5.77
2018-08-09T10:36:13.833Z,6.20
2018-08-09T10:37:17.299Z,6.90
2018-08-09T10:38:20.707Z,6.90
2018-08-09T10:39:24.079Z,5.80
2018-08-09T10:40:29.209Z,7.33
2018-08-09T10:41:32.596Z,20.27
2018-08-09T10:42:36.015Z,13.20
2018-08-09T10:43:39.391Z,8.70
2018-08-09T10:44:42.796Z,7.17
2018-08-09T10:45:47.008Z,5.97
2018-08-09T10:46:50.411Z,6.27
2018-08-09T10:47:53.787Z,5.03
2018-08-09T10:48:57.229Z,6.10
2018-08-09T10:50:00.605Z,6.20
2018-08-09T10:51:04.877Z,7.23
2018-08-09T10:52:08.271Z,7.70
2018-08-09T10:53:11.759Z,7.20
2018-08-09T10:54:15.151Z,6.93
2018-08-09T10:55:19.727Z,7.33
2018-08-09T10:56:23.915Z,12.47
2018-08-09T10:57:27.325Z,11.10
2018-08-09T10:58:30.699Z,8.43
2018-08-09T10:59:34.107Z,8.37
2018-08-09T11:00:38.668Z,6.50
2018-08-09T11:01:42.115Z,5.33
2018-08-09T11:02:45.447Z,5.20
2018-08-09T11:03:48.823Z,5.90
2018-08-09T11:04:52.221Z,6.90
2018-08-09T11:05:56.675Z,7.30
2018-08-09T11:07:00.064Z,6.10
2018-08-09T11:08:03.435Z,6.90
2018-08-09T11:09:09.214Z,5.83
2018-08-09T11:10:13.491Z,21.27
2018-08-09T11:11:18.468Z,15.73
2018-08-09T11:12:21.975Z,9.77
2018-08-09T11:13:25.395Z,7.23
2018-08-09T11:14:28.768Z,5.63
2018-08-09T11:15:33.258Z,6.43
2018-08-09T11:16:36.683Z,5.23
2018-08-09T11:17:40.444Z,7.27
2018-08-09T11:18:44.743Z,5.87
2018-08-09T11:19:48.139Z,6.47
2018-08-09T11:20:52.624Z,6.97
2018-08-09T11:21:56.055Z,5.63
2018-08-09T11:22:59.432Z,5.63
2018-08-09T11:24:02.807Z,5.23
2018-08-09T11:25:08.332Z,9.73
2018-08-09T11:26:13.137Z,12.60
2018-08-09T11:27:16.535Z,7.77
2018-08-09T11:28:19.930Z,6.57
2018-08-09T11:29:23.303Z,5.23
2018-08-09T11:30:27.743Z,4.80
2018-08-09T11:31:31.207Z,4.77
2018-08-09T11:32:34.914Z,4.83
2018-08-09T11:33:38.279Z,5.17
2018-08-09T11:34:41.654Z,5.00
2018-08-09T11:35:46.452Z,5.20
2018-08-09T11:36:49.863Z,4.93
2018-08-09T11:37:53.227Z,4.80
2018-08-09T11:38:56.603Z,6.97
2018-08-09T11:39:59.987Z,9.27
2018-08-09T11:41:04.514Z,7.10
2018-08-09T11:42:07.935Z,5.57
2018-08-09T11:43:11.296Z,4.97
2018-08-09T11:44:14.667Z,5.33
2018-08-09T11:45:19.178Z,4.80
2018-08-09T11:46:23.445Z,4.70
2018-08-09T11:47:26.883Z,4.73
2018-08-09T11:48:30.510Z,5.50
2018-08-09T11:49:33.900Z,4.90
2018-08-09T11:50:38.753Z,4.77
2018-08-09T11:51:42.211Z,4.20
2018-08-09T11:52:45.603Z,4.40
2018-08-09T11:53:48.978Z,5.17
2018-08-09T11:54:52.383Z,4.40
2018-08-09T11:55:58.356Z,4.60
2018-08-09T11:57:01.773Z,4.20
2018-08-09T11:58:05.423Z,4.50
2018-08-09T11:59:08.812Z,4.70
2018-08-09T12:00:13.301Z,4.83
2018-08-09T12:01:17.597Z,5.10
2018-08-09T12:02:21.003Z,5.00
2018-08-09T12:03:24.439Z,5.13
2018-08-09T12:04:27.881Z,4.43
2018-08-09T12:05:31.789Z,4.93
2018-08-09T12:06:35.171Z,4.27
2018-08-09T12:07:38.544Z,4.70
2018-08-09T12:08:41.935Z,4.30
2018-08-09T12:09:45.307Z,4.30
2018-08-09T12:10:49.884Z,4.77
2018-08-09T12:11:53.317Z,5.20
2018-08-09T12:12:56.687Z,4.67
2018-08-09T12:14:00.127Z,4.17
2018-08-09T12:15:04.057Z,5.20
2018-08-09T12:16:08.590Z,4.33
2018-08-09T12:17:11.976Z,4.20
2018-08-09T12:18:15.363Z,4.07
2018-08-09T12:19:18.759Z,4.37
2018-08-09T12:20:23.051Z,4.60
2018-08-09T12:21:27.074Z,4.30
2018-08-09T12:22:30.467Z,4.50
2018-08-09T12:23:33.844Z,4.67
2018-08-09T12:24:37.231Z,4.90
2018-08-09T12:25:41.722Z,5.60
2018-08-09T12:26:45.171Z,4.83
2018-08-09T12:27:48.515Z,5.43
2018-08-09T12:28:51.899Z,4.47
2018-08-09T12:29:55.315Z,5.23
2018-08-09T12:30:59.824Z,4.53
2018-08-09T12:32:03.239Z,4.73
2018-08-09T12:33:06.630Z,4.63
2018-08-09T12:34:10.011Z,5.03
2018-08-09T12:35:14.888Z,4.93
2018-08-09T12:36:19.646Z,5.00
2018-08-09T12:37:23.095Z,4.93
2018-08-09T12:38:26.471Z,5.47
2018-08-09T12:39:29.851Z,4.53
2018-08-09T12:40:35.988Z,5.20
2018-08-09T12:41:39.383Z,5.13
2018-08-09T12:42:42.755Z,4.50
2018-08-09T12:43:46.179Z,5.00
2018-08-09T12:44:49.551Z,4.97
2018-08-09T12:45:54.515Z,5.40
2018-08-09T12:46:57.922Z,4.80
2018-08-09T12:48:01.323Z,4.53
2018-08-09T12:49:04.723Z,5.67
2018-08-09T12:50:12.637Z,4.70
2018-08-09T12:51:17.193Z,4.73
2018-08-09T12:52:20.575Z,4.87
2018-08-09T12:53:23.964Z,4.17
2018-08-09T12:54:27.339Z,5.27
2018-08-09T12:55:31.809Z,5.40
2018-08-09T12:56:35.199Z,5.33
2018-08-09T12:57:38.847Z,5.70
2018-08-09T12:58:42.223Z,6.17
2018-08-09T12:59:45.595Z,6.07
2018-08-09T13:00:50.714Z,5.23
2018-08-09T13:01:54.119Z,4.63
2018-08-09T13:02:57.491Z,4.33
2018-08-09T13:04:00.866Z,4.60
2018-08-09T13:05:05.360Z,3.50
2018-08-09T13:06:09.968Z,3.90
2018-08-09T13:07:13.351Z,4.33
2018-08-09T13:08:16.739Z,4.00
2018-08-09T13:09:20.107Z,3.93
2018-08-09T13:10:24.431Z,3.60
2018-08-09T13:11:28.980Z,4.00
2018-08-09T13:12:32.387Z,3.60
2018-08-09T13:13:35.763Z,3.23
2018-08-09T13:14:39.155Z,3.30
2018-08-09T13:15:43.539Z,3.13
2018-08-09T13:16:46.963Z,3.57
2018-08-09T13:17:50.355Z,3.43
2018-08-09T13:18:53.722Z,3.37
2018-08-09T13:19:57.111Z,3.37
2018-08-09T13:21:01.561Z,3.67
2018-08-09T13:22:05.042Z,3.20
2018-08-09T13:23:08.423Z,3.23
2018-08-09T13:24:11.822Z,3.50
2018-08-09T13:25:16.263Z,3.20
2018-08-09T13:26:22.016Z,3.17
2018-08-09T13:27:25.470Z,3.57
2018-08-09T13:28:28.839Z,3.63
2018-08-09T13:29:32.219Z,3.10
2018-08-09T13:30:36.522Z,3.50
2018-08-09T13:31:39.970Z,3.90
2018-08-09T13:32:44.307Z,3.33
2018-08-09T13:33:47.753Z,3.57
2018-08-09T13:34:51.147Z,4.07
2018-08-09T13:35:55.424Z,3.67
2018-08-09T13:36:58.827Z,4.27
2018-08-09T13:38:02.252Z,4.00
2018-08-09T13:39:09.524Z,4.07
2018-08-09T13:40:13.815Z,4.13
2018-08-09T13:41:18.265Z,3.77
2018-08-09T13:42:21.651Z,3.90
2018-08-09T13:43:25.080Z,4.10
2018-08-09T13:44:28.431Z,4.17
2018-08-09T13:45:32.980Z,3.87
2018-08-09T13:46:36.407Z,3.70
2018-08-09T13:47:40.199Z,3.87
2018-08-09T13:48:43.584Z,3.87
2018-08-09T13:49:46.971Z,3.90
2018-08-09T13:50:51.425Z,3.10
2018-08-09T13:51:54.832Z,3.73
2018-08-09T13:52:58.220Z,3.73
2018-08-09T13:54:01.659Z,3.70
2018-08-09T13:55:06.824Z,3.30
2018-08-09T13:56:11.350Z,3.63
2018-08-09T13:57:14.755Z,3.23
2018-08-09T13:58:18.178Z,3.73
2018-08-09T13:59:21.535Z,3.00
2018-08-09T14:00:25.900Z,3.50
2018-08-09T14:01:30.012Z,3.00
2018-08-09T14:02:33.391Z,3.07
2018-08-09T14:03:36.770Z,3.63
2018-08-09T14:04:40.143Z,3.03
2018-08-09T14:05:44.726Z,3.17
2018-08-09T14:06:48.144Z,3.30
2018-08-09T14:07:51.523Z,3.40
2018-08-09T14:08:54.891Z,3.07
2018-08-09T14:09:58.304Z,3.33
2018-08-09T14:11:02.746Z,3.43
2018-08-09T14:12:06.219Z,3.70
2018-08-09T14:13:09.615Z,3.70